Fromberg, Montana
Current Conditions -  °F | °C
As of 5:53 AM on Saturday 25 Oct 2014 (Local Time) from KBIL Reporting Station
Clear Clear  
Wind Chill: 32°   Ceiling: Unl
Heat Index: 39°   Visibility: 10mi
Dew Point: 33°   Wind: 12mph
Humidity: 79%   Direction: 240°WSW
Pressure: 30.06"   Gusts: NA
Location:  45.39°N, 108.91°W
Report Text: KBIL 251153Z 24010KT 10SM CLR 04/01 A3006 RMK AO2 SLP183 T00390006 10083 20028 57011
Loading
Personal Weather Stations






























Interactive Weather Map
Tropical Storm Tracking
New forecast layout! Learn more

10-Day Weather Forecast

Advertisements
Track Severe Weather on mobile